sensor_id;sensor_type;location;lat;lon;timestamp;P1;durP1;ratioP1;P2;durP2;ratioP2
18748;SDS011;9503;53.560;10.246;2024-01-30T00:01:52;7.37;;;5.13;;
18748;SDS011;9503;53.560;10.246;2024-01-30T00:04:19;8.47;;;5.23;;
18748;SDS011;9503;53.560;10.246;2024-01-30T00:06:47;9.30;;;5.47;;
18748;SDS011;9503;53.560;10.246;2024-01-30T00:09:14;8.73;;;5.27;;
18748;SDS011;9503;53.560;10.246;2024-01-30T00:11:40;9.63;;;5.57;;
18748;SDS011;9503;53.560;10.246;2024-01-30T00:14:07;8.77;;;5.13;;
18748;SDS011;9503;53.560;10.246;2024-01-30T00:16:33;10.93;;;6.33;;
18748;SDS011;9503;53.560;10.246;2024-01-30T00:19:00;7.37;;;4.70;;
18748;SDS011;9503;53.560;10.246;2024-01-30T00:21:27;9.77;;;5.77;;
18748;SDS011;9503;53.560;10.246;2024-01-30T00:23:55;10.90;;;5.73;;
18748;SDS011;9503;53.560;10.246;2024-01-30T00:26:22;9.87;;;5.67;;
18748;SDS011;9503;53.560;10.246;2024-01-30T00:28:48;10.13;;;6.00;;
18748;SDS011;9503;53.560;10.246;2024-01-30T00:31:15;9.37;;;5.40;;
18748;SDS011;9503;53.560;10.246;2024-01-30T00:33:42;8.90;;;5.50;;
18748;SDS011;9503;53.560;10.246;2024-01-30T00:36:09;10.43;;;5.23;;
18748;SDS011;9503;53.560;10.246;2024-01-30T00:38:37;10.17;;;5.80;;
18748;SDS011;9503;53.560;10.246;2024-01-30T00:41:07;9.33;;;5.83;;
18748;SDS011;9503;53.560;10.246;2024-01-30T00:43:34;9.47;;;5.67;;
18748;SDS011;9503;53.560;10.246;2024-01-30T00:46:01;9.27;;;5.13;;
18748;SDS011;9503;53.560;10.246;2024-01-30T00:48:28;9.43;;;5.70;;
18748;SDS011;9503;53.560;10.246;2024-01-30T00:50:55;10.27;;;5.80;;
18748;SDS011;9503;53.560;10.246;2024-01-30T00:53:21;13.77;;;5.93;;
18748;SDS011;9503;53.560;10.246;2024-01-30T00:55:48;10.83;;;5.30;;
18748;SDS011;9503;53.560;10.246;2024-01-30T00:58:16;11.37;;;5.83;;
18748;SDS011;9503;53.560;10.246;2024-01-30T01:00:44;8.50;;;5.50;;
18748;SDS011;9503;53.560;10.246;2024-01-30T01:03:11;8.73;;;5.43;;
18748;SDS011;9503;53.560;10.246;2024-01-30T01:05:39;13.03;;;6.40;;
18748;SDS011;9503;53.560;10.246;2024-01-30T01:08:05;11.17;;;6.77;;
18748;SDS011;9503;53.560;10.246;2024-01-30T01:10:32;10.87;;;6.07;;
18748;SDS011;9503;53.560;10.246;2024-01-30T01:12:59;11.13;;;6.13;;
18748;SDS011;9503;53.560;10.246;2024-01-30T01:15:27;12.67;;;6.20;;
18748;SDS011;9503;53.560;10.246;2024-01-30T01:17:54;12.63;;;6.17;;
18748;SDS011;9503;53.560;10.246;2024-01-30T01:20:20;11.73;;;6.53;;
18748;SDS011;9503;53.560;10.246;2024-01-30T01:22:47;8.23;;;6.20;;
18748;SDS011;9503;53.560;10.246;2024-01-30T01:25:13;10.47;;;6.03;;
18748;SDS011;9503;53.560;10.246;2024-01-30T01:27:40;13.27;;;6.50;;
18748;SDS011;9503;53.560;10.246;2024-01-30T01:30:09;10.07;;;6.27;;
18748;SDS011;9503;53.560;10.246;2024-01-30T01:32:38;10.33;;;6.47;;
18748;SDS011;9503;53.560;10.246;2024-01-30T01:35:09;10.40;;;6.47;;
18748;SDS011;9503;53.560;10.246;2024-01-30T01:37:36;9.27;;;6.17;;
18748;SDS011;9503;53.560;10.246;2024-01-30T01:40:03;10.87;;;5.87;;
18748;SDS011;9503;53.560;10.246;2024-01-30T01:42:31;10.30;;;6.30;;
18748;SDS011;9503;53.560;10.246;2024-01-30T01:44:57;10.70;;;6.37;;
18748;SDS011;9503;53.560;10.246;2024-01-30T01:47:24;9.33;;;5.63;;
18748;SDS011;9503;53.560;10.246;2024-01-30T01:49:52;9.27;;;5.93;;
18748;SDS011;9503;53.560;10.246;2024-01-30T01:52:19;9.53;;;6.10;;
18748;SDS011;9503;53.560;10.246;2024-01-30T01:54:45;11.37;;;5.80;;
18748;SDS011;9503;53.560;10.246;2024-01-30T01:57:12;18.73;;;6.30;;
18748;SDS011;9503;53.560;10.246;2024-01-30T01:59:39;10.17;;;5.50;;
18748;SDS011;9503;53.560;10.246;2024-01-30T02:02:06;8.43;;;5.90;;
18748;SDS011;9503;53.560;10.246;2024-01-30T02:04:37;9.43;;;6.00;;
18748;SDS011;9503;53.560;10.246;2024-01-30T02:07:05;10.13;;;6.43;;
18748;SDS011;9503;53.560;10.246;2024-01-30T02:09:32;8.17;;;6.23;;
18748;SDS011;9503;53.560;10.246;2024-01-30T02:11:59;9.80;;;6.13;;
18748;SDS011;9503;53.560;10.246;2024-01-30T02:14:25;8.87;;;5.50;;
18748;SDS011;9503;53.560;10.246;2024-01-30T02:16:52;9.87;;;6.13;;
18748;SDS011;9503;53.560;10.246;2024-01-30T02:19:18;13.07;;;6.37;;
18748;SDS011;9503;53.560;10.246;2024-01-30T02:21:47;8.30;;;6.00;;
18748;SDS011;9503;53.560;10.246;2024-01-30T02:24:14;12.13;;;6.97;;
18748;SDS011;9503;53.560;10.246;2024-01-30T02:26:40;11.60;;;6.47;;
18748;SDS011;9503;53.560;10.246;2024-01-30T02:29:07;8.33;;;5.80;;
18748;SDS011;9503;53.560;10.246;2024-01-30T02:31:34;9.50;;;5.97;;
18748;SDS011;9503;53.560;10.246;2024-01-30T02:34:00;13.40;;;6.63;;
18748;SDS011;9503;53.560;10.246;2024-01-30T02:36:27;8.90;;;5.97;;
18748;SDS011;9503;53.560;10.246;2024-01-30T02:38:55;10.60;;;6.83;;
18748;SDS011;9503;53.560;10.246;2024-01-30T02:41:21;8.67;;;5.77;;
18748;SDS011;9503;53.560;10.246;2024-01-30T02:43:48;12.87;;;6.37;;
18748;SDS011;9503;53.560;10.246;2024-01-30T02:46:15;11.33;;;6.73;;
18748;SDS011;9503;53.560;10.246;2024-01-30T02:48:41;11.27;;;6.20;;
18748;SDS011;9503;53.560;10.246;2024-01-30T02:51:08;12.77;;;6.73;;
18748;SDS011;9503;53.560;10.246;2024-01-30T02:53:34;11.00;;;6.87;;
18748;SDS011;9503;53.560;10.246;2024-01-30T02:56:03;9.63;;;6.60;;
18748;SDS011;9503;53.560;10.246;2024-01-30T02:58:30;11.13;;;6.53;;
18748;SDS011;9503;53.560;10.246;2024-01-30T03:00:57;14.57;;;7.43;;
18748;SDS011;9503;53.560;10.246;2024-01-30T03:03:24;10.87;;;7.50;;
18748;SDS011;9503;53.560;10.246;2024-01-30T03:05:50;12.07;;;7.27;;
18748;SDS011;9503;53.560;10.246;2024-01-30T03:08:17;10.67;;;6.93;;
18748;SDS011;9503;53.560;10.246;2024-01-30T03:10:43;14.27;;;6.90;;
18748;SDS011;9503;53.560;10.246;2024-01-30T03:13:11;16.33;;;6.80;;
18748;SDS011;9503;53.560;10.246;2024-01-30T03:15:40;9.80;;;5.90;;
18748;SDS011;9503;53.560;10.246;2024-01-30T03:18:07;12.60;;;7.17;;
18748;SDS011;9503;53.560;10.246;2024-01-30T03:20:34;12.60;;;7.17;;
18748;SDS011;9503;53.560;10.246;2024-01-30T03:23:00;13.70;;;6.77;;
18748;SDS011;9503;53.560;10.246;2024-01-30T03:25:27;12.37;;;7.27;;
18748;SDS011;9503;53.560;10.246;2024-01-30T03:27:54;11.07;;;8.00;;
18748;SDS011;9503;53.560;10.246;2024-01-30T03:30:22;13.77;;;6.93;;
18748;SDS011;9503;53.560;10.246;2024-01-30T03:32:49;11.77;;;6.10;;
18748;SDS011;9503;53.560;10.246;2024-01-30T03:35:15;13.90;;;7.33;;
18748;SDS011;9503;53.560;10.246;2024-01-30T03:37:42;12.03;;;7.07;;
18748;SDS011;9503;53.560;10.246;2024-01-30T03:40:09;12.30;;;6.57;;
18748;SDS011;9503;53.560;10.246;2024-01-30T03:42:36;13.57;;;7.37;;
18748;SDS011;9503;53.560;10.246;2024-01-30T03:45:03;12.50;;;7.43;;
18748;SDS011;9503;53.560;10.246;2024-01-30T03:47:31;12.83;;;7.37;;
18748;SDS011;9503;53.560;10.246;2024-01-30T03:49:58;12.03;;;7.47;;
18748;SDS011;9503;53.560;10.246;2024-01-30T03:52:25;13.17;;;7.13;;
18748;SDS011;9503;53.560;10.246;2024-01-30T03:54:51;13.70;;;7.83;;
18748;SDS011;9503;53.560;10.246;2024-01-30T03:57:18;12.50;;;7.60;;
18748;SDS011;9503;53.560;10.246;2024-01-30T03:59:44;13.70;;;7.57;;
18748;SDS011;9503;53.560;10.246;2024-01-30T04:02:11;12.53;;;7.43;;
18748;SDS011;9503;53.560;10.246;2024-01-30T04:04:39;13.73;;;7.40;;
18748;SDS011;9503;53.560;10.246;2024-01-30T04:07:05;13.03;;;7.50;;
18748;SDS011;9503;53.560;10.246;2024-01-30T04:09:32;13.63;;;7.57;;
18748;SDS011;9503;53.560;10.246;2024-01-30T04:11:59;14.23;;;7.07;;
18748;SDS011;9503;53.560;10.246;2024-01-30T04:14:27;11.77;;;7.50;;
18748;SDS011;9503;53.560;10.246;2024-01-30T04:16:54;13.80;;;8.03;;
18748;SDS011;9503;53.560;10.246;2024-01-30T04:19:21;15.60;;;7.60;;
18748;SDS011;9503;53.560;10.246;2024-01-30T04:21:48;13.43;;;7.23;;
18748;SDS011;9503;53.560;10.246;2024-01-30T04:24:15;13.53;;;7.37;;
18748;SDS011;9503;53.560;10.246;2024-01-30T04:26:43;14.47;;;8.23;;
18748;SDS011;9503;53.560;10.246;2024-01-30T04:29:10;11.67;;;7.60;;
18748;SDS011;9503;53.560;10.246;2024-01-30T04:31:36;15.53;;;8.10;;
18748;SDS011;9503;53.560;10.246;2024-01-30T04:34:03;18.10;;;8.83;;
18748;SDS011;9503;53.560;10.246;2024-01-30T04:36:30;14.37;;;7.83;;
18748;SDS011;9503;53.560;10.246;2024-01-30T04:38:58;18.53;;;8.57;;
18748;SDS011;9503;53.560;10.246;2024-01-30T04:41:24;16.10;;;8.53;;
18748;SDS011;9503;53.560;10.246;2024-01-30T04:43:51;13.47;;;8.00;;
18748;SDS011;9503;53.560;10.246;2024-01-30T04:46:17;15.17;;;8.33;;
18748;SDS011;9503;53.560;10.246;2024-01-30T04:48:44;15.93;;;8.00;;
18748;SDS011;9503;53.560;10.246;2024-01-30T04:51:11;15.33;;;7.80;;
18748;SDS011;9503;53.560;10.246;2024-01-30T04:53:37;16.70;;;8.67;;
18748;SDS011;9503;53.560;10.246;2024-01-30T04:56:06;13.77;;;7.80;;
18748;SDS011;9503;53.560;10.246;2024-01-30T04:58:33;14.70;;;8.27;;
18748;SDS011;9503;53.560;10.246;2024-01-30T05:00:59;13.73;;;7.70;;
18748;SDS011;9503;53.560;10.246;2024-01-30T05:03:26;13.73;;;8.17;;
18748;SDS011;9503;53.560;10.246;2024-01-30T05:05:52;17.27;;;8.07;;
18748;SDS011;9503;53.560;10.246;2024-01-30T05:08:19;13.03;;;7.80;;
18748;SDS011;9503;53.560;10.246;2024-01-30T05:10:46;18.47;;;8.20;;
18748;SDS011;9503;53.560;10.246;2024-01-30T05:13:13;14.30;;;8.40;;
18748;SDS011;9503;53.560;10.246;2024-01-30T05:15:40;14.23;;;7.67;;
18748;SDS011;9503;53.560;10.246;2024-01-30T05:18:07;14.90;;;8.07;;
18748;SDS011;9503;53.560;10.246;2024-01-30T05:20:33;17.50;;;8.63;;
18748;SDS011;9503;53.560;10.246;2024-01-30T05:23:00;15.37;;;8.23;;
18748;SDS011;9503;53.560;10.246;2024-01-30T05:25:27;16.67;;;9.27;;
18748;SDS011;9503;53.560;10.246;2024-01-30T05:27:53;16.23;;;9.10;;
18748;SDS011;9503;53.560;10.246;2024-01-30T05:30:21;14.80;;;8.80;;
18748;SDS011;9503;53.560;10.246;2024-01-30T05:32:48;15.67;;;8.33;;
18748;SDS011;9503;53.560;10.246;2024-01-30T05:35:15;17.33;;;9.93;;
18748;SDS011;9503;53.560;10.246;2024-01-30T05:37:41;19.03;;;8.07;;
18748;SDS011;9503;53.560;10.246;2024-01-30T05:40:08;16.53;;;8.70;;
18748;SDS011;9503;53.560;10.246;2024-01-30T05:42:36;15.17;;;8.40;;
18748;SDS011;9503;53.560;10.246;2024-01-30T05:45:02;14.53;;;7.97;;
18748;SDS011;9503;53.560;10.246;2024-01-30T05:47:31;13.73;;;9.03;;
18748;SDS011;9503;53.560;10.246;2024-01-30T05:49:58;16.00;;;8.40;;
18748;SDS011;9503;53.560;10.246;2024-01-30T05:52:24;15.70;;;9.00;;
18748;SDS011;9503;53.560;10.246;2024-01-30T05:54:51;15.67;;;8.77;;
18748;SDS011;9503;53.560;10.246;2024-01-30T05:57:18;17.83;;;9.23;;
18748;SDS011;9503;53.560;10.246;2024-01-30T05:59:44;15.80;;;8.87;;
18748;SDS011;9503;53.560;10.246;2024-01-30T06:02:12;17.43;;;10.13;;
18748;SDS011;9503;53.560;10.246;2024-01-30T06:04:40;20.00;;;10.07;;
18748;SDS011;9503;53.560;10.246;2024-01-30T06:07:07;18.60;;;9.53;;
18748;SDS011;9503;53.560;10.246;2024-01-30T06:09:33;24.80;;;10.57;;
18748;SDS011;9503;53.560;10.246;2024-01-30T06:12:00;17.87;;;9.50;;
18748;SDS011;9503;53.560;10.246;2024-01-30T06:14:27;23.83;;;10.50;;
18748;SDS011;9503;53.560;10.246;2024-01-30T06:16:53;14.50;;;9.00;;
18748;SDS011;9503;53.560;10.246;2024-01-30T06:19:20;18.73;;;9.37;;
18748;SDS011;9503;53.560;10.246;2024-01-30T06:21:48;19.17;;;9.70;;
18748;SDS011;9503;53.560;10.246;2024-01-30T06:24:14;20.70;;;10.07;;
18748;SDS011;9503;53.560;10.246;2024-01-30T06:26:41;16.97;;;9.80;;
18748;SDS011;9503;53.560;10.246;2024-01-30T06:29:08;19.13;;;9.80;;
18748;SDS011;9503;53.560;10.246;2024-01-30T06:31:39;17.03;;;8.93;;
18748;SDS011;9503;53.560;10.246;2024-01-30T06:34:06;20.50;;;9.77;;
18748;SDS011;9503;53.560;10.246;2024-01-30T06:36:32;20.17;;;9.27;;
18748;SDS011;9503;53.560;10.246;2024-01-30T06:39:00;17.97;;;9.53;;
18748;SDS011;9503;53.560;10.246;2024-01-30T06:41:27;19.30;;;10.07;;
18748;SDS011;9503;53.560;10.246;2024-01-30T06:43:54;15.97;;;9.07;;
18748;SDS011;9503;53.560;10.246;2024-01-30T06:46:20;17.10;;;10.17;;
18748;SDS011;9503;53.560;10.246;2024-01-30T06:48:47;17.80;;;10.00;;
18748;SDS011;9503;53.560;10.246;2024-01-30T06:51:13;20.40;;;10.17;;
18748;SDS011;9503;53.560;10.246;2024-01-30T06:53:40;18.97;;;9.93;;
18748;SDS011;9503;53.560;10.246;2024-01-30T06:56:08;18.43;;;10.20;;
18748;SDS011;9503;53.560;10.246;2024-01-30T06:58:34;19.00;;;10.77;;
18748;SDS011;9503;53.560;10.246;2024-01-30T07:01:01;22.73;;;10.17;;
18748;SDS011;9503;53.560;10.246;2024-01-30T07:03:28;15.87;;;9.87;;
18748;SDS011;9503;53.560;10.246;2024-01-30T07:05:54;17.03;;;10.23;;
18748;SDS011;9503;53.560;10.246;2024-01-30T07:08:21;18.13;;;10.07;;
18748;SDS011;9503;53.560;10.246;2024-01-30T07:10:47;20.30;;;10.63;;
18748;SDS011;9503;53.560;10.246;2024-01-30T07:13:15;19.70;;;10.23;;
18748;SDS011;9503;53.560;10.246;2024-01-30T07:15:42;16.93;;;10.30;;
18748;SDS011;9503;53.560;10.246;2024-01-30T07:18:09;21.50;;;10.83;;
18748;SDS011;9503;53.560;10.246;2024-01-30T07:20:35;21.03;;;10.23;;
18748;SDS011;9503;53.560;10.246;2024-01-30T07:23:03;20.47;;;10.07;;
18748;SDS011;9503;53.560;10.246;2024-01-30T07:25:30;19.33;;;10.07;;
18748;SDS011;9503;53.560;10.246;2024-01-30T07:27:56;17.27;;;9.60;;
18748;SDS011;9503;53.560;10.246;2024-01-30T07:30:24;14.60;;;9.20;;
18748;SDS011;9503;53.560;10.246;2024-01-30T07:32:51;21.03;;;10.90;;
18748;SDS011;9503;53.560;10.246;2024-01-30T07:35:17;21.63;;;10.47;;
18748;SDS011;9503;53.560;10.246;2024-01-30T07:37:46;20.20;;;10.47;;
18748;SDS011;9503;53.560;10.246;2024-01-30T07:40:13;20.03;;;10.23;;
18748;SDS011;9503;53.560;10.246;2024-01-30T07:42:39;17.30;;;10.63;;
18748;SDS011;9503;53.560;10.246;2024-01-30T07:45:09;21.07;;;10.20;;
18748;SDS011;9503;53.560;10.246;2024-01-30T07:47:37;20.93;;;10.50;;
18748;SDS011;9503;53.560;10.246;2024-01-30T07:50:04;19.90;;;10.50;;
18748;SDS011;9503;53.560;10.246;2024-01-30T07:52:31;20.00;;;10.43;;
18748;SDS011;9503;53.560;10.246;2024-01-30T07:54:58;18.43;;;10.57;;
18748;SDS011;9503;53.560;10.246;2024-01-30T07:57:24;20.50;;;10.27;;
18748;SDS011;9503;53.560;10.246;2024-01-30T07:59:51;18.63;;;10.63;;
18748;SDS011;9503;53.560;10.246;2024-01-30T08:02:17;22.17;;;10.30;;
18748;SDS011;9503;53.560;10.246;2024-01-30T08:04:45;19.77;;;10.50;;
18748;SDS011;9503;53.560;10.246;2024-01-30T08:07:13;23.87;;;11.60;;
18748;SDS011;9503;53.560;10.246;2024-01-30T08:09:40;19.40;;;10.00;;
18748;SDS011;9503;53.560;10.246;2024-01-30T08:12:07;18.17;;;11.07;;
18748;SDS011;9503;53.560;10.246;2024-01-30T08:14:33;18.90;;;9.83;;
18748;SDS011;9503;53.560;10.246;2024-01-30T08:17:00;19.53;;;11.43;;
18748;SDS011;9503;53.560;10.246;2024-01-30T08:19:26;19.33;;;10.40;;
18748;SDS011;9503;53.560;10.246;2024-01-30T08:21:54;18.33;;;10.17;;
18748;SDS011;9503;53.560;10.246;2024-01-30T08:24:21;24.13;;;11.63;;
18748;SDS011;9503;53.560;10.246;2024-01-30T08:26:47;25.37;;;10.83;;
18748;SDS011;9503;53.560;10.246;2024-01-30T08:29:14;19.33;;;11.07;;
18748;SDS011;9503;53.560;10.246;2024-01-30T08:31:40;20.77;;;11.33;;
18748;SDS011;9503;53.560;10.246;2024-01-30T08:34:07;19.87;;;11.37;;
18748;SDS011;9503;53.560;10.246;2024-01-30T08:36:34;20.33;;;10.77;;
18748;SDS011;9503;53.560;10.246;2024-01-30T08:39:02;20.97;;;10.23;;
18748;SDS011;9503;53.560;10.246;2024-01-30T08:41:30;18.47;;;10.27;;
18748;SDS011;9503;53.560;10.246;2024-01-30T08:43:57;23.00;;;12.47;;
18748;SDS011;9503;53.560;10.246;2024-01-30T08:46:23;21.73;;;10.40;;
18748;SDS011;9503;53.560;10.246;2024-01-30T08:48:50;19.63;;;10.30;;
18748;SDS011;9503;53.560;10.246;2024-01-30T08:51:17;19.60;;;10.00;;
18748;SDS011;9503;53.560;10.246;2024-01-30T08:53:43;28.63;;;11.00;;
18748;SDS011;9503;53.560;10.246;2024-01-30T08:56:11;21.70;;;10.63;;
18748;SDS011;9503;53.560;10.246;2024-01-30T08:58:38;19.37;;;11.10;;
18748;SDS011;9503;53.560;10.246;2024-01-30T09:01:05;18.60;;;10.37;;
18748;SDS011;9503;53.560;10.246;2024-01-30T09:03:31;18.00;;;10.70;;
18748;SDS011;9503;53.560;10.246;2024-01-30T09:05:58;18.70;;;10.30;;
18748;SDS011;9503;53.560;10.246;2024-01-30T09:08:25;19.30;;;10.63;;
18748;SDS011;9503;53.560;10.246;2024-01-30T09:10:52;20.50;;;10.20;;
18748;SDS011;9503;53.560;10.246;2024-01-30T09:13:20;22.90;;;9.60;;
18748;SDS011;9503;53.560;10.246;2024-01-30T09:15:46;20.20;;;10.17;;
18748;SDS011;9503;53.560;10.246;2024-01-30T09:18:13;16.13;;;9.50;;
18748;SDS011;9503;53.560;10.246;2024-01-30T09:20:39;17.10;;;9.00;;
18748;SDS011;9503;53.560;10.246;2024-01-30T09:23:06;15.63;;;9.67;;
18748;SDS011;9503;53.560;10.246;2024-01-30T09:25:33;15.37;;;9.30;;
18748;SDS011;9503;53.560;10.246;2024-01-30T09:28:00;16.80;;;9.70;;
18748;SDS011;9503;53.560;10.246;2024-01-30T09:30:28;17.50;;;9.57;;
18748;SDS011;9503;53.560;10.246;2024-01-30T09:32:55;17.63;;;9.63;;
18748;SDS011;9503;53.560;10.246;2024-01-30T09:35:21;16.97;;;9.37;;
18748;SDS011;9503;53.560;10.246;2024-01-30T09:37:48;18.73;;;10.27;;
18748;SDS011;9503;53.560;10.246;2024-01-30T09:40:14;18.50;;;10.10;;
18748;SDS011;9503;53.560;10.246;2024-01-30T09:42:44;17.63;;;9.67;;
18748;SDS011;9503;53.560;10.246;2024-01-30T09:45:13;17.77;;;10.00;;
18748;SDS011;9503;53.560;10.246;2024-01-30T09:47:42;18.33;;;9.83;;
18748;SDS011;9503;53.560;10.246;2024-01-30T09:50:10;17.37;;;9.73;;
18748;SDS011;9503;53.560;10.246;2024-01-30T09:52:37;15.07;;;9.43;;
18748;SDS011;9503;53.560;10.246;2024-01-30T09:55:05;18.20;;;8.97;;
18748;SDS011;9503;53.560;10.246;2024-01-30T09:57:33;18.63;;;9.37;;
18748;SDS011;9503;53.560;10.246;2024-01-30T10:00:00;15.47;;;9.57;;
18748;SDS011;9503;53.560;10.246;2024-01-30T10:02:27;17.70;;;9.63;;
18748;SDS011;9503;53.560;10.246;2024-01-30T10:04:55;15.60;;;9.43;;
18748;SDS011;9503;53.560;10.246;2024-01-30T10:07:22;14.37;;;9.23;;
18748;SDS011;9503;53.560;10.246;2024-01-30T10:09:49;17.50;;;9.00;;
18748;SDS011;9503;53.560;10.246;2024-01-30T10:12:15;17.00;;;9.90;;
18748;SDS011;9503;53.560;10.246;2024-01-30T10:14:42;13.37;;;8.70;;
18748;SDS011;9503;53.560;10.246;2024-01-30T10:17:09;16.87;;;8.73;;
18748;SDS011;9503;53.560;10.246;2024-01-30T10:19:37;14.93;;;8.93;;
18748;SDS011;9503;53.560;10.246;2024-01-30T10:22:05;19.53;;;9.57;;
18748;SDS011;9503;53.560;10.246;2024-01-30T10:24:32;16.70;;;10.10;;
18748;SDS011;9503;53.560;10.246;2024-01-30T10:26:59;14.93;;;8.33;;
18748;SDS011;9503;53.560;10.246;2024-01-30T10:29:26;17.57;;;9.50;;
18748;SDS011;9503;53.560;10.246;2024-01-30T10:32:00;19.50;;;9.77;;
18748;SDS011;9503;53.560;10.246;2024-01-30T10:34:27;17.17;;;9.57;;
18748;SDS011;9503;53.560;10.246;2024-01-30T10:36:57;17.70;;;8.63;;
18748;SDS011;9503;53.560;10.246;2024-01-30T10:39:29;16.90;;;9.10;;
18748;SDS011;9503;53.560;10.246;2024-01-30T10:41:58;15.50;;;8.63;;
18748;SDS011;9503;53.560;10.246;2024-01-30T10:44:29;20.73;;;8.53;;
18748;SDS011;9503;53.560;10.246;2024-01-30T10:47:03;16.93;;;9.77;;
18748;SDS011;9503;53.560;10.246;2024-01-30T10:49:33;16.53;;;8.70;;
18748;SDS011;9503;53.560;10.246;2024-01-30T10:52:00;14.40;;;8.53;;
18748;SDS011;9503;53.560;10.246;2024-01-30T10:54:29;18.20;;;8.97;;
18748;SDS011;9503;53.560;10.246;2024-01-30T10:56:57;17.77;;;8.80;;
18748;SDS011;9503;53.560;10.246;2024-01-30T10:59:28;16.07;;;10.27;;
18748;SDS011;9503;53.560;10.246;2024-01-30T11:01:56;15.43;;;8.60;;
18748;SDS011;9503;53.560;10.246;2024-01-30T11:04:24;19.53;;;9.57;;
18748;SDS011;9503;53.560;10.246;2024-01-30T11:06:50;15.70;;;9.40;;
18748;SDS011;9503;53.560;10.246;2024-01-30T11:09:17;14.77;;;8.53;;
18748;SDS011;9503;53.560;10.246;2024-01-30T11:11:50;16.40;;;8.70;;
18748;SDS011;9503;53.560;10.246;2024-01-30T11:14:22;14.53;;;8.27;;
18748;SDS011;9503;53.560;10.246;2024-01-30T11:16:49;13.20;;;8.10;;
18748;SDS011;9503;53.560;10.246;2024-01-30T11:19:22;11.73;;;7.77;;
18748;SDS011;9503;53.560;10.246;2024-01-30T11:21:50;16.97;;;8.37;;
18748;SDS011;9503;53.560;10.246;2024-01-30T11:24:19;15.33;;;8.13;;
18748;SDS011;9503;53.560;10.246;2024-01-30T11:26:47;12.17;;;8.17;;
18748;SDS011;9503;53.560;10.246;2024-01-30T11:29:16;13.37;;;8.47;;
18748;SDS011;9503;53.560;10.246;2024-01-30T11:31:51;15.57;;;8.27;;
18748;SDS011;9503;53.560;10.246;2024-01-30T11:34:18;15.27;;;8.83;;
18748;SDS011;9503;53.560;10.246;2024-01-30T11:36:45;16.27;;;7.67;;
18748;SDS011;9503;53.560;10.246;2024-01-30T11:39:24;13.83;;;8.00;;
18748;SDS011;9503;53.560;10.246;2024-01-30T11:41:52;15.93;;;9.07;;
18748;SDS011;9503;53.560;10.246;2024-01-30T11:44:20;17.87;;;8.47;;
18748;SDS011;9503;53.560;10.246;2024-01-30T11:46:47;17.03;;;8.50;;
18748;SDS011;9503;53.560;10.246;2024-01-30T11:49:14;13.27;;;7.90;;
18748;SDS011;9503;53.560;10.246;2024-01-30T11:51:42;12.97;;;7.70;;
18748;SDS011;9503;53.560;10.246;2024-01-30T11:54:09;16.10;;;8.20;;
18748;SDS011;9503;53.560;10.246;2024-01-30T11:56:36;13.30;;;7.47;;
18748;SDS011;9503;53.560;10.246;2024-01-30T11:59:04;16.67;;;9.17;;
18748;SDS011;9503;53.560;10.246;2024-01-30T12:01:31;13.70;;;7.97;;
18748;SDS011;9503;53.560;10.246;2024-01-30T12:03:58;15.63;;;8.70;;
18748;SDS011;9503;53.560;10.246;2024-01-30T12:06:25;16.50;;;8.77;;
18748;SDS011;9503;53.560;10.246;2024-01-30T12:08:56;13.00;;;7.77;;
18748;SDS011;9503;53.560;10.246;2024-01-30T12:11:23;9.63;;;7.40;;
18748;SDS011;9503;53.560;10.246;2024-01-30T12:13:50;11.97;;;8.33;;
18748;SDS011;9503;53.560;10.246;2024-01-30T12:16:19;10.60;;;7.07;;
18748;SDS011;9503;53.560;10.246;2024-01-30T12:18:45;12.20;;;7.73;;
18748;SDS011;9503;53.560;10.246;2024-01-30T12:21:12;12.57;;;7.67;;
18748;SDS011;9503;53.560;10.246;2024-01-30T12:23:42;14.17;;;7.50;;
18748;SDS011;9503;53.560;10.246;2024-01-30T12:26:09;15.57;;;8.37;;
18748;SDS011;9503;53.560;10.246;2024-01-30T12:28:36;13.03;;;7.20;;
18748;SDS011;9503;53.560;10.246;2024-01-30T12:31:03;12.10;;;7.87;;
18748;SDS011;9503;53.560;10.246;2024-01-30T12:33:31;16.10;;;7.93;;
18748;SDS011;9503;53.560;10.246;2024-01-30T12:35:58;12.77;;;7.50;;
18748;SDS011;9503;53.560;10.246;2024-01-30T12:38:27;14.60;;;7.93;;
18748;SDS011;9503;53.560;10.246;2024-01-30T12:40:54;12.53;;;7.37;;
18748;SDS011;9503;53.560;10.246;2024-01-30T12:43:21;12.70;;;7.80;;
18748;SDS011;9503;53.560;10.246;2024-01-30T12:45:48;13.40;;;7.73;;
18748;SDS011;9503;53.560;10.246;2024-01-30T12:48:14;13.87;;;7.43;;
18748;SDS011;9503;53.560;10.246;2024-01-30T12:50:42;14.77;;;7.87;;
18748;SDS011;9503;53.560;10.246;2024-01-30T12:53:09;14.30;;;8.17;;
18748;SDS011;9503;53.560;10.246;2024-01-30T12:55:37;15.60;;;8.27;;
18748;SDS011;9503;53.560;10.246;2024-01-30T12:58:04;12.77;;;7.37;;
18748;SDS011;9503;53.560;10.246;2024-01-30T13:00:30;13.83;;;8.17;;
18748;SDS011;9503;53.560;10.246;2024-01-30T13:02:57;14.17;;;7.80;;
18748;SDS011;9503;53.560;10.246;2024-01-30T13:05:24;15.30;;;8.20;;
18748;SDS011;9503;53.560;10.246;2024-01-30T13:07:52;13.87;;;7.93;;
18748;SDS011;9503;53.560;10.246;2024-01-30T13:10:20;14.47;;;7.57;;
18748;SDS011;9503;53.560;10.246;2024-01-30T13:12:47;16.10;;;7.73;;
18748;SDS011;9503;53.560;10.246;2024-01-30T13:15:14;17.97;;;8.73;;
18748;SDS011;9503;53.560;10.246;2024-01-30T13:17:40;15.43;;;8.10;;
18748;SDS011;9503;53.560;10.246;2024-01-30T13:20:08;11.77;;;7.73;;
18748;SDS011;9503;53.560;10.246;2024-01-30T13:22:36;17.23;;;8.00;;
18748;SDS011;9503;53.560;10.246;2024-01-30T13:25:05;12.60;;;7.33;;
18748;SDS011;9503;53.560;10.246;2024-01-30T13:27:32;12.67;;;7.27;;
18748;SDS011;9503;53.560;10.246;2024-01-30T13:29:59;14.87;;;7.73;;
18748;SDS011;9503;53.560;10.246;2024-01-30T13:32:25;14.13;;;8.37;;
18748;SDS011;9503;53.560;10.246;2024-01-30T13:34:52;17.33;;;8.37;;
18748;SDS011;9503;53.560;10.246;2024-01-30T13:37:18;15.87;;;8.63;;
18748;SDS011;9503;53.560;10.246;2024-01-30T13:39:45;14.30;;;7.77;;
18748;SDS011;9503;53.560;10.246;2024-01-30T13:42:13;13.33;;;7.90;;
18748;SDS011;9503;53.560;10.246;2024-01-30T13:44:39;13.17;;;7.63;;
18748;SDS011;9503;53.560;10.246;2024-01-30T13:47:08;14.23;;;8.47;;
18748;SDS011;9503;53.560;10.246;2024-01-30T13:49:34;18.07;;;8.83;;
18748;SDS011;9503;53.560;10.246;2024-01-30T13:52:01;12.63;;;7.97;;
18748;SDS011;9503;53.560;10.246;2024-01-30T13:54:28;17.47;;;7.63;;
18748;SDS011;9503;53.560;10.246;2024-01-30T13:56:55;14.87;;;7.80;;
18748;SDS011;9503;53.560;10.246;2024-01-30T13:59:23;13.67;;;7.33;;
18748;SDS011;9503;53.560;10.246;2024-01-30T14:01:51;15.40;;;8.47;;
18748;SDS011;9503;53.560;10.246;2024-01-30T14:04:17;14.77;;;8.10;;
18748;SDS011;9503;53.560;10.246;2024-01-30T14:06:44;14.60;;;7.47;;
18748;SDS011;9503;53.560;10.246;2024-01-30T14:09:11;17.03;;;8.40;;
18748;SDS011;9503;53.560;10.246;2024-01-30T14:11:39;14.07;;;8.47;;
18748;SDS011;9503;53.560;10.246;2024-01-30T14:14:07;16.60;;;8.43;;
18748;SDS011;9503;53.560;10.246;2024-01-30T14:16:36;17.30;;;8.20;;
18748;SDS011;9503;53.560;10.246;2024-01-30T14:19:02;15.17;;;7.87;;
18748;SDS011;9503;53.560;10.246;2024-01-30T14:21:29;14.00;;;8.03;;
18748;SDS011;9503;53.560;10.246;2024-01-30T14:23:56;11.53;;;7.23;;
18748;SDS011;9503;53.560;10.246;2024-01-30T14:26:22;14.20;;;7.90;;
18748;SDS011;9503;53.560;10.246;2024-01-30T14:28:49;13.23;;;7.53;;
18748;SDS011;9503;53.560;10.246;2024-01-30T14:31:16;11.77;;;7.30;;
18748;SDS011;9503;53.560;10.246;2024-01-30T14:33:45;16.43;;;7.50;;